sensor_id;sensor_type;location;lat;lon;timestamp;temperature;humidity
1381;DHT22;684;48.342;10.096;2023-03-02T00:00:04;2.60;29.40
1381;DHT22;684;48.342;10.096;2023-03-02T00:02:37;2.60;29.50
1381;DHT22;684;48.342;10.096;2023-03-02T00:05:06;2.60;29.70
1381;DHT22;684;48.342;10.096;2023-03-02T00:07:35;2.60;29.70
1381;DHT22;684;48.342;10.096;2023-03-02T00:10:04;2.60;30.00
1381;DHT22;684;48.342;10.096;2023-03-02T00:12:32;2.60;30.00
1381;DHT22;684;48.342;10.096;2023-03-02T00:14:59;2.60;30.10
1381;DHT22;684;48.342;10.096;2023-03-02T00:17:26;2.60;30.20
1381;DHT22;684;48.342;10.096;2023-03-02T00:19:53;2.60;30.30
1381;DHT22;684;48.342;10.096;2023-03-02T00:22:19;2.60;30.40
1381;DHT22;684;48.342;10.096;2023-03-02T00:24:46;2.50;30.40
1381;DHT22;684;48.342;10.096;2023-03-02T00:27:13;2.50;30.60
1381;DHT22;684;48.342;10.096;2023-03-02T00:29:41;2.50;30.60
1381;DHT22;684;48.342;10.096;2023-03-02T00:32:08;2.50;30.60
1381;DHT22;684;48.342;10.096;2023-03-02T00:34:39;2.50;30.70
1381;DHT22;684;48.342;10.096;2023-03-02T00:37:05;2.50;30.70
1381;DHT22;684;48.342;10.096;2023-03-02T00:39:32;2.50;30.80
1381;DHT22;684;48.342;10.096;2023-03-02T00:41:59;2.40;30.90
1381;DHT22;684;48.342;10.096;2023-03-02T00:44:25;2.40;30.90
1381;DHT22;684;48.342;10.096;2023-03-02T00:46:54;2.40;31.00
1381;DHT22;684;48.342;10.096;2023-03-02T00:49:20;2.40;31.00
1381;DHT22;684;48.342;10.096;2023-03-02T00:51:47;2.40;31.00
1381;DHT22;684;48.342;10.096;2023-03-02T00:54:14;2.40;31.00
1381;DHT22;684;48.342;10.096;2023-03-02T00:56:41;2.40;31.10
1381;DHT22;684;48.342;10.096;2023-03-02T00:59:10;2.40;31.20
1381;DHT22;684;48.342;10.096;2023-03-02T01:01:50;2.40;31.30
1381;DHT22;684;48.342;10.096;2023-03-02T01:04:24;2.40;31.50
1381;DHT22;684;48.342;10.096;2023-03-02T01:06:54;2.40;31.50
1381;DHT22;684;48.342;10.096;2023-03-02T01:09:21;2.40;31.50
1381;DHT22;684;48.342;10.096;2023-03-02T01:11:47;2.40;31.70
1381;DHT22;684;48.342;10.096;2023-03-02T01:14:14;2.30;31.80
1381;DHT22;684;48.342;10.096;2023-03-02T01:16:41;2.40;31.90
1381;DHT22;684;48.342;10.096;2023-03-02T01:19:08;2.40;31.90
1381;DHT22;684;48.342;10.096;2023-03-02T01:21:36;2.30;31.90
1381;DHT22;684;48.342;10.096;2023-03-02T01:24:03;2.40;31.90
1381;DHT22;684;48.342;10.096;2023-03-02T01:26:30;2.40;32.10
1381;DHT22;684;48.342;10.096;2023-03-02T01:28:57;2.40;31.90
1381;DHT22;684;48.342;10.096;2023-03-02T01:31:25;2.50;32.00
1381;DHT22;684;48.342;10.096;2023-03-02T01:33:52;2.50;32.00
1381;DHT22;684;48.342;10.096;2023-03-02T01:36:19;2.60;31.80
1381;DHT22;684;48.342;10.096;2023-03-02T01:38:48;2.60;31.70
1381;DHT22;684;48.342;10.096;2023-03-02T01:41:15;2.60;31.60
1381;DHT22;684;48.342;10.096;2023-03-02T01:43:42;2.60;31.60
1381;DHT22;684;48.342;10.096;2023-03-02T01:46:12;2.60;31.50
1381;DHT22;684;48.342;10.096;2023-03-02T01:48:44;2.70;31.70
1381;DHT22;684;48.342;10.096;2023-03-02T01:51:13;2.70;31.70
1381;DHT22;684;48.342;10.096;2023-03-02T01:53:41;2.70;31.60
1381;DHT22;684;48.342;10.096;2023-03-02T01:56:15;2.80;31.40
1381;DHT22;684;48.342;10.096;2023-03-02T01:58:43;2.70;31.60
1381;DHT22;684;48.342;10.096;2023-03-02T02:01:10;2.80;31.50
1381;DHT22;684;48.342;10.096;2023-03-02T02:03:42;2.80;31.40
1381;DHT22;684;48.342;10.096;2023-03-02T02:06:14;2.80;31.30
1381;DHT22;684;48.342;10.096;2023-03-02T02:08:43;2.80;31.40
1381;DHT22;684;48.342;10.096;2023-03-02T02:11:12;2.80;31.30
1381;DHT22;684;48.342;10.096;2023-03-02T02:13:39;2.80;31.30
1381;DHT22;684;48.342;10.096;2023-03-02T02:16:06;2.80;31.30
1381;DHT22;684;48.342;10.096;2023-03-02T02:18:35;2.80;31.30
1381;DHT22;684;48.342;10.096;2023-03-02T02:21:03;2.80;31.20
1381;DHT22;684;48.342;10.096;2023-03-02T02:23:37;2.80;31.30
1381;DHT22;684;48.342;10.096;2023-03-02T02:26:11;2.90;31.20
1381;DHT22;684;48.342;10.096;2023-03-02T02:28:43;2.80;31.10
1381;DHT22;684;48.342;10.096;2023-03-02T02:31:16;2.90;31.10
1381;DHT22;684;48.342;10.096;2023-03-02T02:33:49;2.90;31.00
1381;DHT22;684;48.342;10.096;2023-03-02T02:36:20;2.90;30.90
1381;DHT22;684;48.342;10.096;2023-03-02T02:38:54;3.00;30.90
1381;DHT22;684;48.342;10.096;2023-03-02T02:41:25;3.00;30.70
1381;DHT22;684;48.342;10.096;2023-03-02T02:43:53;3.00;30.80
1381;DHT22;684;48.342;10.096;2023-03-02T02:46:21;3.00;30.70
1381;DHT22;684;48.342;10.096;2023-03-02T02:48:48;3.00;30.70
1381;DHT22;684;48.342;10.096;2023-03-02T02:51:19;3.00;30.80
1381;DHT22;684;48.342;10.096;2023-03-02T02:53:49;3.00;30.70
1381;DHT22;684;48.342;10.096;2023-03-02T02:56:17;3.00;30.70
1381;DHT22;684;48.342;10.096;2023-03-02T02:58:48;3.00;30.80
1381;DHT22;684;48.342;10.096;2023-03-02T03:01:17;3.00;30.60
1381;DHT22;684;48.342;10.096;2023-03-02T03:03:50;3.00;30.70
1381;DHT22;684;48.342;10.096;2023-03-02T03:06:18;3.00;30.60
1381;DHT22;684;48.342;10.096;2023-03-02T03:08:57;3.00;30.50
1381;DHT22;684;48.342;10.096;2023-03-02T03:11:26;3.00;30.40
1381;DHT22;684;48.342;10.096;2023-03-02T03:13:59;3.10;30.40
1381;DHT22;684;48.342;10.096;2023-03-02T03:16:29;3.10;30.30
1381;DHT22;684;48.342;10.096;2023-03-02T03:18:58;3.10;30.20
1381;DHT22;684;48.342;10.096;2023-03-02T03:21:27;3.10;30.20
1381;DHT22;684;48.342;10.096;2023-03-02T03:23:54;3.10;30.10
1381;DHT22;684;48.342;10.096;2023-03-02T03:26:21;3.10;30.20
1381;DHT22;684;48.342;10.096;2023-03-02T03:28:47;3.10;30.10
1381;DHT22;684;48.342;10.096;2023-03-02T03:31:15;3.10;29.90
1381;DHT22;684;48.342;10.096;2023-03-02T03:33:42;3.10;30.00
1381;DHT22;684;48.342;10.096;2023-03-02T03:36:09;3.10;30.00
1381;DHT22;684;48.342;10.096;2023-03-02T03:38:35;3.20;30.00
1381;DHT22;684;48.342;10.096;2023-03-02T03:41:03;3.20;29.80
1381;DHT22;684;48.342;10.096;2023-03-02T03:43:30;3.20;29.80
1381;DHT22;684;48.342;10.096;2023-03-02T03:45:56;3.20;29.60
1381;DHT22;684;48.342;10.096;2023-03-02T03:48:24;3.20;29.50
1381;DHT22;684;48.342;10.096;2023-03-02T03:50:51;3.20;29.50
1381;DHT22;684;48.342;10.096;2023-03-02T03:53:18;3.20;29.40
1381;DHT22;684;48.342;10.096;2023-03-02T03:55:45;3.20;29.40
1381;DHT22;684;48.342;10.096;2023-03-02T03:58:12;3.20;29.30
1381;DHT22;684;48.342;10.096;2023-03-02T04:00:38;3.30;29.20
1381;DHT22;684;48.342;10.096;2023-03-02T04:03:05;3.20;29.20
1381;DHT22;684;48.342;10.096;2023-03-02T04:05:33;3.20;29.20
1381;DHT22;684;48.342;10.096;2023-03-02T04:08:00;3.20;29.20
1381;DHT22;684;48.342;10.096;2023-03-02T04:10:27;3.20;29.10
1381;DHT22;684;48.342;10.096;2023-03-02T04:12:54;3.20;29.10
1381;DHT22;684;48.342;10.096;2023-03-02T04:15:21;3.20;29.80
1381;DHT22;684;48.342;10.096;2023-03-02T04:17:49;3.20;29.20
1381;DHT22;684;48.342;10.096;2023-03-02T04:20:16;3.20;29.20
1381;DHT22;684;48.342;10.096;2023-03-02T04:22:47;3.20;29.20
1381;DHT22;684;48.342;10.096;2023-03-02T04:25:16;3.20;29.30
1381;DHT22;684;48.342;10.096;2023-03-02T04:27:44;3.20;29.20
1381;DHT22;684;48.342;10.096;2023-03-02T04:30:12;3.20;29.10
1381;DHT22;684;48.342;10.096;2023-03-02T04:32:39;3.20;29.20
1381;DHT22;684;48.342;10.096;2023-03-02T04:35:06;3.20;29.30
1381;DHT22;684;48.342;10.096;2023-03-02T04:37:33;3.20;29.20
1381;DHT22;684;48.342;10.096;2023-03-02T04:40:01;3.20;29.40
1381;DHT22;684;48.342;10.096;2023-03-02T04:42:29;3.20;29.40
1381;DHT22;684;48.342;10.096;2023-03-02T04:44:55;3.10;29.50
1381;DHT22;684;48.342;10.096;2023-03-02T04:47:22;3.20;29.40
1381;DHT22;684;48.342;10.096;2023-03-02T04:49:49;3.20;29.50
1381;DHT22;684;48.342;10.096;2023-03-02T04:52:19;3.10;29.60
1381;DHT22;684;48.342;10.096;2023-03-02T04:54:46;3.10;29.50
1381;DHT22;684;48.342;10.096;2023-03-02T04:57:14;3.10;29.60
1381;DHT22;684;48.342;10.096;2023-03-02T04:59:40;3.10;29.60
1381;DHT22;684;48.342;10.096;2023-03-02T05:02:07;3.10;29.60
1381;DHT22;684;48.342;10.096;2023-03-02T05:04:34;3.10;29.60
1381;DHT22;684;48.342;10.096;2023-03-02T05:07:01;3.10;29.60
1381;DHT22;684;48.342;10.096;2023-03-02T05:09:28;3.10;29.60
1381;DHT22;684;48.342;10.096;2023-03-02T05:11:56;3.10;29.60
1381;DHT22;684;48.342;10.096;2023-03-02T05:14:25;3.10;29.60
1381;DHT22;684;48.342;10.096;2023-03-02T05:16:52;3.10;29.70
1381;DHT22;684;48.342;10.096;2023-03-02T05:19:19;3.10;29.50
1381;DHT22;684;48.342;10.096;2023-03-02T05:21:46;3.10;29.60
1381;DHT22;684;48.342;10.096;2023-03-02T05:24:13;3.10;30.40
1381;DHT22;684;48.342;10.096;2023-03-02T05:26:40;3.10;29.90
1381;DHT22;684;48.342;10.096;2023-03-02T05:29:07;3.10;29.80
1381;DHT22;684;48.342;10.096;2023-03-02T05:31:37;3.10;29.80
1381;DHT22;684;48.342;10.096;2023-03-02T05:34:07;3.10;29.70
1381;DHT22;684;48.342;10.096;2023-03-02T05:36:34;3.10;29.70
1381;DHT22;684;48.342;10.096;2023-03-02T05:39:00;3.10;29.70
1381;DHT22;684;48.342;10.096;2023-03-02T05:41:28;3.10;29.70
1381;DHT22;684;48.342;10.096;2023-03-02T05:43:54;3.10;29.70
1381;DHT22;684;48.342;10.096;2023-03-02T05:46:21;3.10;29.70
1381;DHT22;684;48.342;10.096;2023-03-02T05:48:49;3.10;29.70
1381;DHT22;684;48.342;10.096;2023-03-02T05:51:16;3.10;29.70
1381;DHT22;684;48.342;10.096;2023-03-02T05:53:43;3.10;29.70
1381;DHT22;684;48.342;10.096;2023-03-02T05:56:09;3.20;29.50
1381;DHT22;684;48.342;10.096;2023-03-02T05:58:36;3.20;29.50
1381;DHT22;684;48.342;10.096;2023-03-02T06:01:07;3.10;29.60
1381;DHT22;684;48.342;10.096;2023-03-02T06:03:33;3.10;29.50
1381;DHT22;684;48.342;10.096;2023-03-02T06:06:02;3.10;29.60
1381;DHT22;684;48.342;10.096;2023-03-02T06:08:28;3.20;29.40
1381;DHT22;684;48.342;10.096;2023-03-02T06:10:56;3.20;29.40
1381;DHT22;684;48.342;10.096;2023-03-02T06:13:23;3.20;29.40
1381;DHT22;684;48.342;10.096;2023-03-02T06:15:49;3.20;29.40
1381;DHT22;684;48.342;10.096;2023-03-02T06:18:16;3.50;29.50
1381;DHT22;684;48.342;10.096;2023-03-02T06:20:43;3.20;29.50
1381;DHT22;684;48.342;10.096;2023-03-02T06:23:11;3.20;29.50
1381;DHT22;684;48.342;10.096;2023-03-02T06:25:38;3.20;29.50
1381;DHT22;684;48.342;10.096;2023-03-02T06:28:08;3.20;29.40
1381;DHT22;684;48.342;10.096;2023-03-02T06:30:34;3.20;29.50
1381;DHT22;684;48.342;10.096;2023-03-02T06:33:01;3.20;29.50
1381;DHT22;684;48.342;10.096;2023-03-02T06:35:28;3.20;29.50
1381;DHT22;684;48.342;10.096;2023-03-02T06:37:54;3.20;29.50
1381;DHT22;684;48.342;10.096;2023-03-02T06:40:23;3.20;29.50
1381;DHT22;684;48.342;10.096;2023-03-02T06:42:49;3.20;29.50
1381;DHT22;684;48.342;10.096;2023-03-02T06:45:16;3.20;29.50
1381;DHT22;684;48.342;10.096;2023-03-02T06:47:43;3.20;29.60
1381;DHT22;684;48.342;10.096;2023-03-02T06:52:35;3.20;29.60
1381;DHT22;684;48.342;10.096;2023-03-02T06:55:02;3.20;29.60
1381;DHT22;684;48.342;10.096;2023-03-02T06:57:30;3.20;29.60
1381;DHT22;684;48.342;10.096;2023-03-02T06:59:59;3.20;29.60
1381;DHT22;684;48.342;10.096;2023-03-02T07:02:26;3.20;29.40
1381;DHT22;684;48.342;10.096;2023-03-02T07:04:53;3.20;29.60
1381;DHT22;684;48.342;10.096;2023-03-02T07:07:20;3.20;29.50
1381;DHT22;684;48.342;10.096;2023-03-02T07:09:47;3.20;30.10
1381;DHT22;684;48.342;10.096;2023-03-02T07:12:13;3.30;29.60
1381;DHT22;684;48.342;10.096;2023-03-02T07:14:41;3.30;29.50
1381;DHT22;684;48.342;10.096;2023-03-02T07:17:08;3.30;29.60
1381;DHT22;684;48.342;10.096;2023-03-02T07:19:35;3.30;29.60
1381;DHT22;684;48.342;10.096;2023-03-02T07:22:03;3.30;29.70
1381;DHT22;684;48.342;10.096;2023-03-02T07:24:30;3.50;29.70
1381;DHT22;684;48.342;10.096;2023-03-02T07:26:57;3.30;29.60
1381;DHT22;684;48.342;10.096;2023-03-02T07:29:23;3.40;29.50
1381;DHT22;684;48.342;10.096;2023-03-02T07:31:51;3.40;29.50
1381;DHT22;684;48.342;10.096;2023-03-02T07:34:22;3.50;29.40
1381;DHT22;684;48.342;10.096;2023-03-02T07:36:49;3.50;29.20
1381;DHT22;684;48.342;10.096;2023-03-02T07:39:16;3.60;29.10
1381;DHT22;684;48.342;10.096;2023-03-02T07:41:43;3.70;29.10
1381;DHT22;684;48.342;10.096;2023-03-02T07:44:09;3.70;28.90
1381;DHT22;684;48.342;10.096;2023-03-02T07:46:36;3.80;28.80
1381;DHT22;684;48.342;10.096;2023-03-02T07:49:04;3.80;28.50
1381;DHT22;684;48.342;10.096;2023-03-02T07:51:31;3.90;28.50
1381;DHT22;684;48.342;10.096;2023-03-02T07:53:58;3.90;28.30
1381;DHT22;684;48.342;10.096;2023-03-02T07:56:27;4.00;28.10
1381;DHT22;684;48.342;10.096;2023-03-02T07:58:54;4.00;28.00
1381;DHT22;684;48.342;10.096;2023-03-02T08:01:20;4.00;27.90
1381;DHT22;684;48.342;10.096;2023-03-02T08:03:47;4.00;27.90
1381;DHT22;684;48.342;10.096;2023-03-02T08:06:18;4.10;27.70
1381;DHT22;684;48.342;10.096;2023-03-02T08:08:45;4.10;27.50
1381;DHT22;684;48.342;10.096;2023-03-02T08:11:13;4.10;27.40
1381;DHT22;684;48.342;10.096;2023-03-02T08:13:41;4.10;27.50
1381;DHT22;684;48.342;10.096;2023-03-02T08:16:10;4.10;27.50
1381;DHT22;684;48.342;10.096;2023-03-02T08:18:38;4.20;27.10
1381;DHT22;684;48.342;10.096;2023-03-02T08:21:11;4.20;27.10
1381;DHT22;684;48.342;10.096;2023-03-02T08:23:39;4.20;27.20
1381;DHT22;684;48.342;10.096;2023-03-02T08:26:07;4.30;27.00
1381;DHT22;684;48.342;10.096;2023-03-02T08:28:33;4.40;26.70
1381;DHT22;684;48.342;10.096;2023-03-02T08:31:02;4.40;26.70
1381;DHT22;684;48.342;10.096;2023-03-02T08:33:29;4.50;26.60
1381;DHT22;684;48.342;10.096;2023-03-02T08:35:56;4.50;26.60
1381;DHT22;684;48.342;10.096;2023-03-02T08:38:24;4.60;26.40
1381;DHT22;684;48.342;10.096;2023-03-02T08:40:52;4.70;26.30
1381;DHT22;684;48.342;10.096;2023-03-02T08:43:20;4.70;26.10
1381;DHT22;684;48.342;10.096;2023-03-02T08:45:50;4.80;26.00
1381;DHT22;684;48.342;10.096;2023-03-02T08:48:17;4.90;25.80
1381;DHT22;684;48.342;10.096;2023-03-02T08:50:52;5.00;25.50
1381;DHT22;684;48.342;10.096;2023-03-02T08:53:19;5.10;25.40
1381;DHT22;684;48.342;10.096;2023-03-02T08:55:46;5.20;25.10
1381;DHT22;684;48.342;10.096;2023-03-02T08:58:14;5.30;25.00
1381;DHT22;684;48.342;10.096;2023-03-02T09:00:40;5.30;24.80
1381;DHT22;684;48.342;10.096;2023-03-02T09:03:07;5.40;24.60
1381;DHT22;684;48.342;10.096;2023-03-02T09:05:34;5.40;24.50
1381;DHT22;684;48.342;10.096;2023-03-02T09:08:01;5.50;24.40
1381;DHT22;684;48.342;10.096;2023-03-02T09:10:28;5.60;24.30
1381;DHT22;684;48.342;10.096;2023-03-02T09:12:55;5.60;24.00
1381;DHT22;684;48.342;10.096;2023-03-02T09:15:23;5.70;23.80
1381;DHT22;684;48.342;10.096;2023-03-02T09:17:49;5.70;23.70
1381;DHT22;684;48.342;10.096;2023-03-02T09:20:16;5.70;23.60
1381;DHT22;684;48.342;10.096;2023-03-02T09:22:43;5.60;23.40
1381;DHT22;684;48.342;10.096;2023-03-02T09:25:15;5.60;23.50
1381;DHT22;684;48.342;10.096;2023-03-02T09:27:43;5.60;23.50
1381;DHT22;684;48.342;10.096;2023-03-02T09:30:11;5.50;23.70
1381;DHT22;684;48.342;10.096;2023-03-02T09:32:39;5.50;23.70
1381;DHT22;684;48.342;10.096;2023-03-02T09:35:07;5.60;23.70
1381;DHT22;684;48.342;10.096;2023-03-02T09:37:33;5.70;23.80
1381;DHT22;684;48.342;10.096;2023-03-02T09:40:04;5.70;23.60
1381;DHT22;684;48.342;10.096;2023-03-02T09:42:47;5.70;23.60
1381;DHT22;684;48.342;10.096;2023-03-02T09:45:29;5.80;23.40
1381;DHT22;684;48.342;10.096;2023-03-02T09:48:08;5.80;23.20
1381;DHT22;684;48.342;10.096;2023-03-02T09:50:39;6.00;23.20
1381;DHT22;684;48.342;10.096;2023-03-02T09:53:30;6.00;22.90
1381;DHT22;684;48.342;10.096;2023-03-02T09:56:00;5.90;22.60
1381;DHT22;684;48.342;10.096;2023-03-02T09:58:30;5.90;22.50
1381;DHT22;684;48.342;10.096;2023-03-02T10:01:01;5.90;22.70
1381;DHT22;684;48.342;10.096;2023-03-02T10:03:35;6.00;22.70
1381;DHT22;684;48.342;10.096;2023-03-02T10:06:04;6.10;22.90
1381;DHT22;684;48.342;10.096;2023-03-02T10:08:33;6.20;22.80
1381;DHT22;684;48.342;10.096;2023-03-02T10:11:07;6.20;22.80
1381;DHT22;684;48.342;10.096;2023-03-02T10:13:38;6.20;22.30
1381;DHT22;684;48.342;10.096;2023-03-02T10:16:15;6.00;22.10
1381;DHT22;684;48.342;10.096;2023-03-02T10:18:48;6.00;22.60
1381;DHT22;684;48.342;10.096;2023-03-02T10:21:20;6.00;22.50
1381;DHT22;684;48.342;10.096;2023-03-02T10:23:52;6.20;22.60
1381;DHT22;684;48.342;10.096;2023-03-02T10:26:32;6.30;22.60
1381;DHT22;684;48.342;10.096;2023-03-02T10:31:57;6.60;22.30
1381;DHT22;684;48.342;10.096;2023-03-02T10:34:30;6.70;22.00
1381;DHT22;684;48.342;10.096;2023-03-02T10:36:57;6.80;21.50
1381;DHT22;684;48.342;10.096;2023-03-02T10:39:24;6.90;21.40
1381;DHT22;684;48.342;10.096;2023-03-02T10:41:53;7.00;20.90
1381;DHT22;684;48.342;10.096;2023-03-02T10:44:23;7.10;20.80
1381;DHT22;684;48.342;10.096;2023-03-02T10:46:52;7.30;20.80
1381;DHT22;684;48.342;10.096;2023-03-02T10:49:28;7.50;20.40
1381;DHT22;684;48.342;10.096;2023-03-02T10:51:57;7.70;20.20
1381;DHT22;684;48.342;10.096;2023-03-02T10:54:24;8.10;19.90
1381;DHT22;684;48.342;10.096;2023-03-02T10:56:56;8.40;19.40
1381;DHT22;684;48.342;10.096;2023-03-02T10:59:42;8.70;18.00
1381;DHT22;684;48.342;10.096;2023-03-02T11:02:15;8.80;17.30
1381;DHT22;684;48.342;10.096;2023-03-02T11:04:44;9.10;17.30
1381;DHT22;684;48.342;10.096;2023-03-02T11:07:15;9.50;16.50
1381;DHT22;684;48.342;10.096;2023-03-02T11:09:42;9.90;15.40
1381;DHT22;684;48.342;10.096;2023-03-02T11:12:13;10.40;14.90
1381;DHT22;684;48.342;10.096;2023-03-02T11:14:41;10.80;14.00
1381;DHT22;684;48.342;10.096;2023-03-02T11:17:28;11.30;14.10
1381;DHT22;684;48.342;10.096;2023-03-02T11:19:57;11.40;11.60
1381;DHT22;684;48.342;10.096;2023-03-02T11:22:32;11.40;11.60
1381;DHT22;684;48.342;10.096;2023-03-02T11:25:05;11.50;11.30
1381;DHT22;684;48.342;10.096;2023-03-02T11:27:35;11.50;11.50
1381;DHT22;684;48.342;10.096;2023-03-02T11:30:12;11.80;11.40
1381;DHT22;684;48.342;10.096;2023-03-02T11:32:44;12.10;10.80
1381;DHT22;684;48.342;10.096;2023-03-02T11:35:20;12.40;9.90
1381;DHT22;684;48.342;10.096;2023-03-02T11:37:52;12.80;10.20
1381;DHT22;684;48.342;10.096;2023-03-02T11:40:23;13.10;9.40
1381;DHT22;684;48.342;10.096;2023-03-02T11:42:54;13.30;9.30
1381;DHT22;684;48.342;10.096;2023-03-02T11:45:23;13.40;8.70
1381;DHT22;684;48.342;10.096;2023-03-02T11:47:54;13.40;8.20
1381;DHT22;684;48.342;10.096;2023-03-02T11:50:25;13.40;8.10
1381;DHT22;684;48.342;10.096;2023-03-02T11:52:54;13.50;7.90
1381;DHT22;684;48.342;10.096;2023-03-02T11:55:25;13.30;7.60
1381;DHT22;684;48.342;10.096;2023-03-02T11:57:55;13.20;8.50
1381;DHT22;684;48.342;10.096;2023-03-02T12:00:29;13.10;8.60
1381;DHT22;684;48.342;10.096;2023-03-02T12:02:58;13.10;8.90
1381;DHT22;684;48.342;10.096;2023-03-02T12:05:28;13.00;8.80
1381;DHT22;684;48.342;10.096;2023-03-02T12:07:56;12.90;8.70
1381;DHT22;684;48.342;10.096;2023-03-02T12:10:29;12.80;9.10
1381;DHT22;684;48.342;10.096;2023-03-02T12:15:45;13.00;8.60
1381;DHT22;684;48.342;10.096;2023-03-02T12:21:15;12.90;9.00
1381;DHT22;684;48.342;10.096;2023-03-02T12:23:54;12.70;9.30
1381;DHT22;684;48.342;10.096;2023-03-02T12:26:27;12.60;9.70
1381;DHT22;684;48.342;10.096;2023-03-02T12:28:57;12.50;10.40
1381;DHT22;684;48.342;10.096;2023-03-02T12:31:24;12.50;10.50
1381;DHT22;684;48.342;10.096;2023-03-02T12:33:51;12.40;10.70
1381;DHT22;684;48.342;10.096;2023-03-02T12:36:24;12.40;10.60
1381;DHT22;684;48.342;10.096;2023-03-02T12:39:02;12.40;10.70
1381;DHT22;684;48.342;10.096;2023-03-02T12:42:00;12.50;10.70
1381;DHT22;684;48.342;10.096;2023-03-02T12:44:40;12.70;10.40
1381;DHT22;684;48.342;10.096;2023-03-02T12:47:15;12.90;10.10
1381;DHT22;684;48.342;10.096;2023-03-02T12:49:48;12.80;9.50
1381;DHT22;684;48.342;10.096;2023-03-02T12:52:26;12.60;9.30
1381;DHT22;684;48.342;10.096;2023-03-02T12:55:02;12.30;9.80
1381;DHT22;684;48.342;10.096;2023-03-02T12:57:30;12.20;10.20
1381;DHT22;684;48.342;10.096;2023-03-02T12:59:58;12.10;10.40
1381;DHT22;684;48.342;10.096;2023-03-02T13:02:28;12.00;10.70
1381;DHT22;684;48.342;10.096;2023-03-02T13:04:56;11.90;11.10
1381;DHT22;684;48.342;10.096;2023-03-02T13:07:27;11.70;11.30
1381;DHT22;684;48.342;10.096;2023-03-02T13:09:56;11.60;11.60
1381;DHT22;684;48.342;10.096;2023-03-02T13:12:27;11.40;11.80
1381;DHT22;684;48.342;10.096;2023-03-02T13:14:56;11.30;12.30
1381;DHT22;684;48.342;10.096;2023-03-02T13:17:26;11.20;12.30
1381;DHT22;684;48.342;10.096;2023-03-02T13:19:54;11.20;12.90
1381;DHT22;684;48.342;10.096;2023-03-02T13:22:21;11.10;12.90
1381;DHT22;684;48.342;10.096;2023-03-02T13:24:55;11.00;12.30
1381;DHT22;684;48.342;10.096;2023-03-02T13:27:23;10.80;13.20
1381;DHT22;684;48.342;10.096;2023-03-02T13:29:51;10.70;13.60
1381;DHT22;684;48.342;10.096;2023-03-02T13:32:21;10.50;13.40
1381;DHT22;684;48.342;10.096;2023-03-02T13:34:50;10.40;13.30
1381;DHT22;684;48.342;10.096;2023-03-02T13:37:28;10.20;13.90
1381;DHT22;684;48.342;10.096;2023-03-02T13:40:00;10.10;14.20
1381;DHT22;684;48.342;10.096;2023-03-02T13:42:33;9.90;14.90
1381;DHT22;684;48.342;10.096;2023-03-02T13:45:13;9.80;14.90
1381;DHT22;684;48.342;10.096;2023-03-02T13:47:46;9.60;15.00
1381;DHT22;684;48.342;10.096;2023-03-02T13:50:17;9.50;15.20
1381;DHT22;684;48.342;10.096;2023-03-02T13:52:44;9.40;15.70
1381;DHT22;684;48.342;10.096;2023-03-02T13:55:14;9.30;16.20
1381;DHT22;684;48.342;10.096;2023-03-02T13:57:41;9.20;16.20
1381;DHT22;684;48.342;10.096;2023-03-02T14:00:14;9.10;16.70
1381;DHT22;684;48.342;10.096;2023-03-02T14:02:42;9.10;16.90
1381;DHT22;684;48.342;10.096;2023-03-02T14:05:15;9.00;17.00
1381;DHT22;684;48.342;10.096;2023-03-02T14:07:42;8.90;17.10
1381;DHT22;684;48.342;10.096;2023-03-02T14:10:13;8.90;17.30
1381;DHT22;684;48.342;10.096;2023-03-02T14:12:41;8.90;17.60
1381;DHT22;684;48.342;10.096;2023-03-02T14:15:13;8.90;17.50
1381;DHT22;684;48.342;10.096;2023-03-02T14:17:41;8.90;17.30
1381;DHT22;684;48.342;10.096;2023-03-02T14:20:11;8.80;17.30
1381;DHT22;684;48.342;10.096;2023-03-02T14:22:39;8.70;17.50
1381;DHT22;684;48.342;10.096;2023-03-02T14:25:07;8.60;17.70
1381;DHT22;684;48.342;10.096;2023-03-02T14:27:36;8.50;18.10
1381;DHT22;684;48.342;10.096;2023-03-02T14:30:11;8.50;18.40
1381;DHT22;684;48.342;10.096;2023-03-02T14:32:38;8.50;18.60
1381;DHT22;684;48.342;10.096;2023-03-02T14:35:07;8.50;18.80
1381;DHT22;684;48.342;10.096;2023-03-02T14:37:37;8.60;18.70
1381;DHT22;684;48.342;10.096;2023-03-02T14:40:16;8.60;18.90
1381;DHT22;684;48.342;10.096;2023-03-02T14:42:45;8.60;18.90
1381;DHT22;684;48.342;10.096;2023-03-02T14:45:13;8.60;18.70
1381;DHT22;684;48.342;10.096;2023-03-02T14:47:40;8.60;18.70
1381;DHT22;684;48.342;10.096;2023-03-02T14:50:09;8.60;19.00
1381;DHT22;684;48.342;10.096;2023-03-02T14:52:39;8.70;19.20
1381;DHT22;684;48.342;10.096;2023-03-02T14:55:13;8.70;19.40
1381;DHT22;684;48.342;10.096;2023-03-02T14:57:40;8.60;19.10
1381;DHT22;684;48.342;10.096;2023-03-02T15:00:12;8.60;19.50
1381;DHT22;684;48.342;10.096;2023-03-02T15:02:40;8.60;19.60
1381;DHT22;684;48.342;10.096;2023-03-02T15:05:08;8.60;19.50
1381;DHT22;684;48.342;10.096;2023-03-02T15:07:35;8.60;19.60
1381;DHT22;684;48.342;10.096;2023-03-02T15:10:05;8.60;19.80
1381;DHT22;684;48.342;10.096;2023-03-02T15:12:32;8.60;19.80
1381;DHT22;684;48.342;10.096;2023-03-02T15:14:59;8.60;20.00
1381;DHT22;684;48.342;10.096;2023-03-02T15:17:28;8.50;20.00
1381;DHT22;684;48.342;10.096;2023-03-02T15:19:55;8.50;19.80
1381;DHT22;684;48.342;10.096;2023-03-02T15:22:22;8.40;19.80
1381;DHT22;684;48.342;10.096;2023-03-02T15:24:49;8.40;19.90
1381;DHT22;684;48.342;10.096;2023-03-02T15:27:16;8.30;20.00
1381;DHT22;684;48.342;10.096;2023-03-02T15:29:44;8.30;20.10
1381;DHT22;684;48.342;10.096;2023-03-02T15:32:11;8.30;20.20
1381;DHT22;684;48.342;10.096;2023-03-02T15:34:40;8.20;20.40
1381;DHT22;684;48.342;10.096;2023-03-02T15:37:08;8.20;20.50
1381;DHT22;684;48.342;10.096;2023-03-02T15:39:37;8.10;20.70
1381;DHT22;684;48.342;10.096;2023-03-02T15:42:04;8.00;20.70
1381;DHT22;684;48.342;10.096;2023-03-02T15:44:31;8.00;20.70
1381;DHT22;684;48.342;10.096;2023-03-02T15:46:59;7.90;20.80
1381;DHT22;684;48.342;10.096;2023-03-02T15:49:28;7.90;21.00
1381;DHT22;684;48.342;10.096;2023-03-02T15:51:58;7.80;21.30
1381;DHT22;684;48.342;10.096;2023-03-02T15:54:26;7.80;21.70
1381;DHT22;684;48.342;10.096;2023-03-02T15:56:54;7.70;22.50
1381;DHT22;684;48.342;10.096;2023-03-02T15:59:22;7.60;21.80
1381;DHT22;684;48.342;10.096;2023-03-02T16:01:50;7.60;21.90
1381;DHT22;684;48.342;10.096;2023-03-02T16:04:17;7.50;22.00
1381;DHT22;684;48.342;10.096;2023-03-02T16:06:44;7.50;22.20
1381;DHT22;684;48.342;10.096;2023-03-02T16:09:13;7.40;22.50
1381;DHT22;684;48.342;10.096;2023-03-02T16:11:40;7.40;22.70
1381;DHT22;684;48.342;10.096;2023-03-02T16:14:07;7.30;22.90
1381;DHT22;684;48.342;10.096;2023-03-02T16:16:34;7.20;23.10
1381;DHT22;684;48.342;10.096;2023-03-02T16:19:01;7.20;23.40
1381;DHT22;684;48.342;10.096;2023-03-02T16:21:28;7.10;23.70
1381;DHT22;684;48.342;10.096;2023-03-02T16:23:56;7.10;23.70
1381;DHT22;684;48.342;10.096;2023-03-02T16:26:30;7.00;23.60
1381;DHT22;684;48.342;10.096;2023-03-02T16:28:58;7.00;23.70
1381;DHT22;684;48.342;10.096;2023-03-02T16:31:27;6.90;24.00
1381;DHT22;684;48.342;10.096;2023-03-02T16:33:58;6.80;24.20
1381;DHT22;684;48.342;10.096;2023-03-02T16:36:28;6.70;24.40
1381;DHT22;684;48.342;10.096;2023-03-02T16:38:55;6.60;24.40